sensor_id;sensor_type;location;lat;lon;timestamp;P1;durP1;ratioP1;P2;durP2;ratioP2
13222;SDS011;6676;45.192;5.722;2022-10-31T00:00:10;10.23;;;5.83;;
13222;SDS011;6676;45.192;5.722;2022-10-31T00:03:03;10.15;;;6.00;;
13222;SDS011;6676;45.192;5.722;2022-10-31T00:05:55;9.15;;;5.90;;
13222;SDS011;6676;45.192;5.722;2022-10-31T00:08:46;8.00;;;5.25;;
13222;SDS011;6676;45.192;5.722;2022-10-31T00:11:40;11.25;;;6.30;;
13222;SDS011;6676;45.192;5.722;2022-10-31T00:14:32;9.18;;;5.55;;
13222;SDS011;6676;45.192;5.722;2022-10-31T00:17:23;9.68;;;5.45;;
13222;SDS011;6676;45.192;5.722;2022-10-31T00:20:14;9.63;;;5.37;;
13222;SDS011;6676;45.192;5.722;2022-10-31T00:23:07;8.58;;;5.22;;
13222;SDS011;6676;45.192;5.722;2022-10-31T00:26:03;8.60;;;5.33;;
13222;SDS011;6676;45.192;5.722;2022-10-31T00:28:55;10.13;;;5.05;;
13222;SDS011;6676;45.192;5.722;2022-10-31T00:31:47;16.67;;;6.17;;
13222;SDS011;6676;45.192;5.722;2022-10-31T00:34:38;8.88;;;5.70;;
13222;SDS011;6676;45.192;5.722;2022-10-31T00:37:30;8.68;;;5.85;;
13222;SDS011;6676;45.192;5.722;2022-10-31T00:40:21;10.70;;;5.50;;
13222;SDS011;6676;45.192;5.722;2022-10-31T00:43:13;10.65;;;5.47;;
13222;SDS011;6676;45.192;5.722;2022-10-31T00:46:05;10.85;;;5.60;;
13222;SDS011;6676;45.192;5.722;2022-10-31T00:48:56;10.85;;;5.30;;
13222;SDS011;6676;45.192;5.722;2022-10-31T00:51:48;8.48;;;5.37;;
13222;SDS011;6676;45.192;5.722;2022-10-31T00:54:40;7.50;;;5.25;;
13222;SDS011;6676;45.192;5.722;2022-10-31T00:57:31;13.38;;;5.33;;
13222;SDS011;6676;45.192;5.722;2022-10-31T01:00:24;7.58;;;4.85;;
13222;SDS011;6676;45.192;5.722;2022-10-31T01:03:16;9.70;;;4.70;;
13222;SDS011;6676;45.192;5.722;2022-10-31T01:06:09;8.83;;;5.58;;
13222;SDS011;6676;45.192;5.722;2022-10-31T01:09:01;11.63;;;5.08;;
13222;SDS011;6676;45.192;5.722;2022-10-31T01:11:53;8.33;;;5.03;;
13222;SDS011;6676;45.192;5.722;2022-10-31T01:14:44;8.50;;;4.90;;
13222;SDS011;6676;45.192;5.722;2022-10-31T01:17:38;8.45;;;4.87;;
13222;SDS011;6676;45.192;5.722;2022-10-31T01:20:31;9.33;;;5.00;;
13222;SDS011;6676;45.192;5.722;2022-10-31T01:23:23;8.63;;;4.90;;
13222;SDS011;6676;45.192;5.722;2022-10-31T01:26:15;11.03;;;4.97;;
13222;SDS011;6676;45.192;5.722;2022-10-31T01:29:08;8.15;;;5.55;;
13222;SDS011;6676;45.192;5.722;2022-10-31T01:32:01;13.20;;;5.47;;
13222;SDS011;6676;45.192;5.722;2022-10-31T01:34:55;9.30;;;5.12;;
13222;SDS011;6676;45.192;5.722;2022-10-31T01:37:51;9.13;;;4.55;;
13222;SDS011;6676;45.192;5.722;2022-10-31T01:40:43;7.85;;;4.55;;
13222;SDS011;6676;45.192;5.722;2022-10-31T01:43:45;9.70;;;4.70;;
13222;SDS011;6676;45.192;5.722;2022-10-31T01:46:30;10.85;;;6.15;;
13222;SDS011;6676;45.192;5.722;2022-10-31T01:49:34;9.83;;;5.47;;
13222;SDS011;6676;45.192;5.722;2022-10-31T01:52:20;9.40;;;5.50;;
13222;SDS011;6676;45.192;5.722;2022-10-31T01:55:15;6.97;;;4.90;;
13222;SDS011;6676;45.192;5.722;2022-10-31T01:58:09;9.65;;;5.25;;
13222;SDS011;6676;45.192;5.722;2022-10-31T02:01:05;7.12;;;5.10;;
13222;SDS011;6676;45.192;5.722;2022-10-31T02:03:57;7.20;;;4.60;;
13222;SDS011;6676;45.192;5.722;2022-10-31T02:06:49;10.32;;;5.80;;
13222;SDS011;6676;45.192;5.722;2022-10-31T02:09:40;11.73;;;5.08;;
13222;SDS011;6676;45.192;5.722;2022-10-31T02:12:32;9.00;;;4.87;;
13222;SDS011;6676;45.192;5.722;2022-10-31T02:15:25;9.58;;;5.50;;
13222;SDS011;6676;45.192;5.722;2022-10-31T02:18:18;12.23;;;5.35;;
13222;SDS011;6676;45.192;5.722;2022-10-31T02:21:01;8.85;;;5.42;;
13222;SDS011;6676;45.192;5.722;2022-10-31T02:24:09;8.40;;;5.20;;
13222;SDS011;6676;45.192;5.722;2022-10-31T02:27:24;7.17;;;4.42;;
13222;SDS011;6676;45.192;5.722;2022-10-31T02:30:22;8.20;;;4.67;;
13222;SDS011;6676;45.192;5.722;2022-10-31T02:33:20;7.85;;;4.47;;
13222;SDS011;6676;45.192;5.722;2022-10-31T02:36:15;9.75;;;4.25;;
13222;SDS011;6676;45.192;5.722;2022-10-31T02:39:12;10.47;;;5.00;;
13222;SDS011;6676;45.192;5.722;2022-10-31T02:42:07;9.83;;;4.83;;
13222;SDS011;6676;45.192;5.722;2022-10-31T02:45:03;9.08;;;4.87;;
13222;SDS011;6676;45.192;5.722;2022-10-31T02:47:58;11.40;;;4.97;;
13222;SDS011;6676;45.192;5.722;2022-10-31T02:50:52;11.30;;;5.47;;
13222;SDS011;6676;45.192;5.722;2022-10-31T02:53:46;7.75;;;4.97;;
13222;SDS011;6676;45.192;5.722;2022-10-31T02:56:37;10.18;;;5.15;;
13222;SDS011;6676;45.192;5.722;2022-10-31T02:59:29;9.63;;;5.00;;
13222;SDS011;6676;45.192;5.722;2022-10-31T03:02:26;8.98;;;5.22;;
13222;SDS011;6676;45.192;5.722;2022-10-31T03:05:32;11.05;;;5.22;;
13222;SDS011;6676;45.192;5.722;2022-10-31T03:08:34;6.55;;;4.28;;
13222;SDS011;6676;45.192;5.722;2022-10-31T03:11:13;7.03;;;4.90;;
13222;SDS011;6676;45.192;5.722;2022-10-31T03:14:10;8.60;;;4.75;;
13222;SDS011;6676;45.192;5.722;2022-10-31T03:17:05;8.38;;;4.55;;
13222;SDS011;6676;45.192;5.722;2022-10-31T03:19:59;7.20;;;4.35;;
13222;SDS011;6676;45.192;5.722;2022-10-31T03:22:53;9.00;;;4.22;;
13222;SDS011;6676;45.192;5.722;2022-10-31T03:25:46;8.30;;;4.62;;
13222;SDS011;6676;45.192;5.722;2022-10-31T03:28:42;8.73;;;4.87;;
13222;SDS011;6676;45.192;5.722;2022-10-31T03:31:36;8.20;;;4.65;;
13222;SDS011;6676;45.192;5.722;2022-10-31T03:34:32;10.78;;;4.80;;
13222;SDS011;6676;45.192;5.722;2022-10-31T03:37:27;13.45;;;4.78;;
13222;SDS011;6676;45.192;5.722;2022-10-31T03:40:21;7.70;;;4.72;;
13222;SDS011;6676;45.192;5.722;2022-10-31T03:43:15;10.35;;;5.35;;
13222;SDS011;6676;45.192;5.722;2022-10-31T03:46:10;8.55;;;4.80;;
13222;SDS011;6676;45.192;5.722;2022-10-31T03:49:03;6.53;;;4.62;;
13222;SDS011;6676;45.192;5.722;2022-10-31T03:51:57;8.08;;;4.70;;
13222;SDS011;6676;45.192;5.722;2022-10-31T03:54:52;11.78;;;5.92;;
13222;SDS011;6676;45.192;5.722;2022-10-31T03:57:51;9.93;;;5.22;;
13222;SDS011;6676;45.192;5.722;2022-10-31T04:00:44;10.65;;;5.37;;
13222;SDS011;6676;45.192;5.722;2022-10-31T04:03:37;9.30;;;4.28;;
13222;SDS011;6676;45.192;5.722;2022-10-31T04:06:30;9.70;;;4.97;;
13222;SDS011;6676;45.192;5.722;2022-10-31T04:09:24;5.87;;;4.25;;
13222;SDS011;6676;45.192;5.722;2022-10-31T04:12:18;9.53;;;4.75;;
13222;SDS011;6676;45.192;5.722;2022-10-31T04:15:17;10.53;;;5.05;;
13222;SDS011;6676;45.192;5.722;2022-10-31T04:18:11;7.67;;;4.42;;
13222;SDS011;6676;45.192;5.722;2022-10-31T04:21:05;8.90;;;4.90;;
13222;SDS011;6676;45.192;5.722;2022-10-31T04:23:57;9.38;;;5.55;;
13222;SDS011;6676;45.192;5.722;2022-10-31T04:26:49;11.03;;;5.70;;
13222;SDS011;6676;45.192;5.722;2022-10-31T04:29:42;12.98;;;5.20;;
13222;SDS011;6676;45.192;5.722;2022-10-31T04:32:35;6.37;;;4.35;;
13222;SDS011;6676;45.192;5.722;2022-10-31T04:35:27;10.25;;;5.70;;
13222;SDS011;6676;45.192;5.722;2022-10-31T04:38:18;10.10;;;5.10;;
13222;SDS011;6676;45.192;5.722;2022-10-31T04:41:10;10.90;;;4.78;;
13222;SDS011;6676;45.192;5.722;2022-10-31T04:44:06;9.98;;;5.55;;
13222;SDS011;6676;45.192;5.722;2022-10-31T04:46:57;11.00;;;4.97;;
13222;SDS011;6676;45.192;5.722;2022-10-31T04:49:49;7.35;;;5.10;;
13222;SDS011;6676;45.192;5.722;2022-10-31T04:52:41;10.63;;;4.85;;
13222;SDS011;6676;45.192;5.722;2022-10-31T04:55:35;8.90;;;4.92;;
13222;SDS011;6676;45.192;5.722;2022-10-31T04:58:29;8.70;;;4.78;;
13222;SDS011;6676;45.192;5.722;2022-10-31T05:01:20;8.20;;;4.83;;
13222;SDS011;6676;45.192;5.722;2022-10-31T05:04:12;7.90;;;4.65;;
13222;SDS011;6676;45.192;5.722;2022-10-31T05:07:03;7.78;;;4.60;;
13222;SDS011;6676;45.192;5.722;2022-10-31T05:09:55;12.13;;;5.10;;
13222;SDS011;6676;45.192;5.722;2022-10-31T05:12:50;10.08;;;5.58;;
13222;SDS011;6676;45.192;5.722;2022-10-31T05:15:44;7.97;;;5.20;;
13222;SDS011;6676;45.192;5.722;2022-10-31T05:19:00;7.83;;;4.83;;
13222;SDS011;6676;45.192;5.722;2022-10-31T05:22:14;10.68;;;5.35;;
13222;SDS011;6676;45.192;5.722;2022-10-31T05:25:09;9.35;;;5.30;;
13222;SDS011;6676;45.192;5.722;2022-10-31T05:28:05;12.37;;;4.97;;
13222;SDS011;6676;45.192;5.722;2022-10-31T05:30:58;10.88;;;5.00;;
13222;SDS011;6676;45.192;5.722;2022-10-31T05:33:53;10.72;;;4.72;;
13222;SDS011;6676;45.192;5.722;2022-10-31T05:37:04;11.60;;;5.20;;
13222;SDS011;6676;45.192;5.722;2022-10-31T05:39:57;6.70;;;4.65;;
13222;SDS011;6676;45.192;5.722;2022-10-31T05:42:53;8.73;;;5.25;;
13222;SDS011;6676;45.192;5.722;2022-10-31T05:45:52;9.40;;;4.75;;
13222;SDS011;6676;45.192;5.722;2022-10-31T05:48:58;9.60;;;5.28;;
13222;SDS011;6676;45.192;5.722;2022-10-31T05:52:09;8.55;;;4.92;;
13222;SDS011;6676;45.192;5.722;2022-10-31T05:55:07;11.00;;;5.40;;
13222;SDS011;6676;45.192;5.722;2022-10-31T05:58:01;9.68;;;4.95;;
13222;SDS011;6676;45.192;5.722;2022-10-31T06:00:55;12.63;;;5.05;;
13222;SDS011;6676;45.192;5.722;2022-10-31T06:03:49;8.63;;;4.90;;
13222;SDS011;6676;45.192;5.722;2022-10-31T06:06:44;14.15;;;5.55;;
13222;SDS011;6676;45.192;5.722;2022-10-31T06:09:36;6.62;;;4.75;;
13222;SDS011;6676;45.192;5.722;2022-10-31T06:12:29;8.38;;;5.05;;
13222;SDS011;6676;45.192;5.722;2022-10-31T06:15:30;9.43;;;5.25;;
13222;SDS011;6676;45.192;5.722;2022-10-31T06:18:25;10.48;;;5.75;;
13222;SDS011;6676;45.192;5.722;2022-10-31T06:21:18;7.75;;;4.70;;
13222;SDS011;6676;45.192;5.722;2022-10-31T06:24:12;10.28;;;5.20;;
13222;SDS011;6676;45.192;5.722;2022-10-31T06:27:20;8.68;;;5.42;;
13222;SDS011;6676;45.192;5.722;2022-10-31T06:30:14;10.32;;;4.95;;
13222;SDS011;6676;45.192;5.722;2022-10-31T06:33:07;9.93;;;5.35;;
13222;SDS011;6676;45.192;5.722;2022-10-31T06:36:04;11.83;;;5.50;;
13222;SDS011;6676;45.192;5.722;2022-10-31T06:39:03;8.43;;;4.78;;
13222;SDS011;6676;45.192;5.722;2022-10-31T06:41:59;8.55;;;4.55;;
13222;SDS011;6676;45.192;5.722;2022-10-31T06:44:56;10.20;;;5.37;;
13222;SDS011;6676;45.192;5.722;2022-10-31T06:48:06;7.55;;;5.05;;
13222;SDS011;6676;45.192;5.722;2022-10-31T06:51:06;10.68;;;5.42;;
13222;SDS011;6676;45.192;5.722;2022-10-31T06:53:59;7.90;;;5.05;;
13222;SDS011;6676;45.192;5.722;2022-10-31T06:56:52;9.28;;;5.37;;
13222;SDS011;6676;45.192;5.722;2022-10-31T06:59:45;9.63;;;5.28;;
13222;SDS011;6676;45.192;5.722;2022-10-31T07:02:51;9.50;;;5.53;;
13222;SDS011;6676;45.192;5.722;2022-10-31T07:05:43;9.13;;;5.10;;
13222;SDS011;6676;45.192;5.722;2022-10-31T07:08:35;7.37;;;5.20;;
13222;SDS011;6676;45.192;5.722;2022-10-31T07:11:27;13.70;;;5.10;;
13222;SDS011;6676;45.192;5.722;2022-10-31T07:14:20;9.45;;;5.00;;
13222;SDS011;6676;45.192;5.722;2022-10-31T07:17:13;8.98;;;5.20;;
13222;SDS011;6676;45.192;5.722;2022-10-31T07:20:06;9.23;;;4.62;;
13222;SDS011;6676;45.192;5.722;2022-10-31T07:22:59;7.78;;;4.50;;
13222;SDS011;6676;45.192;5.722;2022-10-31T07:25:55;9.23;;;5.05;;
13222;SDS011;6676;45.192;5.722;2022-10-31T07:28:48;10.20;;;5.20;;
13222;SDS011;6676;45.192;5.722;2022-10-31T07:31:41;10.53;;;5.20;;
13222;SDS011;6676;45.192;5.722;2022-10-31T07:34:36;8.88;;;4.42;;
13222;SDS011;6676;45.192;5.722;2022-10-31T07:37:37;13.35;;;5.50;;
13222;SDS011;6676;45.192;5.722;2022-10-31T07:40:29;8.63;;;5.30;;
13222;SDS011;6676;45.192;5.722;2022-10-31T07:43:20;9.20;;;5.40;;
13222;SDS011;6676;45.192;5.722;2022-10-31T07:46:14;9.98;;;5.00;;
13222;SDS011;6676;45.192;5.722;2022-10-31T07:49:23;12.07;;;4.85;;
13222;SDS011;6676;45.192;5.722;2022-10-31T07:52:22;8.48;;;5.22;;
13222;SDS011;6676;45.192;5.722;2022-10-31T07:55:32;12.18;;;5.08;;
13222;SDS011;6676;45.192;5.722;2022-10-31T07:58:25;16.95;;;5.00;;
13222;SDS011;6676;45.192;5.722;2022-10-31T08:01:18;13.20;;;5.40;;
13222;SDS011;6676;45.192;5.722;2022-10-31T08:04:12;8.75;;;4.33;;
13222;SDS011;6676;45.192;5.722;2022-10-31T08:07:21;10.23;;;5.30;;
13222;SDS011;6676;45.192;5.722;2022-10-31T08:10:17;9.93;;;5.17;;
13222;SDS011;6676;45.192;5.722;2022-10-31T08:13:10;10.70;;;5.15;;
13222;SDS011;6676;45.192;5.722;2022-10-31T08:16:04;9.08;;;4.97;;
13222;SDS011;6676;45.192;5.722;2022-10-31T08:18:57;8.80;;;5.37;;
13222;SDS011;6676;45.192;5.722;2022-10-31T08:21:51;9.45;;;5.10;;
13222;SDS011;6676;45.192;5.722;2022-10-31T08:24:43;9.28;;;5.33;;
13222;SDS011;6676;45.192;5.722;2022-10-31T08:27:35;14.45;;;5.58;;
13222;SDS011;6676;45.192;5.722;2022-10-31T08:30:29;8.18;;;5.37;;
13222;SDS011;6676;45.192;5.722;2022-10-31T08:33:23;12.63;;;5.20;;
13222;SDS011;6676;45.192;5.722;2022-10-31T08:36:26;11.38;;;4.75;;
13222;SDS011;6676;45.192;5.722;2022-10-31T08:39:22;9.08;;;5.00;;
13222;SDS011;6676;45.192;5.722;2022-10-31T08:42:14;9.90;;;5.00;;
13222;SDS011;6676;45.192;5.722;2022-10-31T08:45:06;10.60;;;5.00;;
13222;SDS011;6676;45.192;5.722;2022-10-31T08:47:58;9.33;;;4.47;;
13222;SDS011;6676;45.192;5.722;2022-10-31T08:50:55;9.63;;;5.40;;
13222;SDS011;6676;45.192;5.722;2022-10-31T08:53:47;10.18;;;4.85;;
13222;SDS011;6676;45.192;5.722;2022-10-31T08:56:55;8.15;;;5.20;;
13222;SDS011;6676;45.192;5.722;2022-10-31T08:59:51;8.38;;;5.30;;
13222;SDS011;6676;45.192;5.722;2022-10-31T09:02:44;11.25;;;5.33;;
13222;SDS011;6676;45.192;5.722;2022-10-31T09:08:14;9.60;;;5.95;;
13222;SDS011;6676;45.192;5.722;2022-10-31T09:11:07;8.48;;;5.03;;
13222;SDS011;6676;45.192;5.722;2022-10-31T09:14:16;7.90;;;5.35;;
13222;SDS011;6676;45.192;5.722;2022-10-31T09:17:12;11.90;;;5.83;;
13222;SDS011;6676;45.192;5.722;2022-10-31T09:20:05;8.43;;;5.15;;
13222;SDS011;6676;45.192;5.722;2022-10-31T09:22:58;9.15;;;5.28;;
13222;SDS011;6676;45.192;5.722;2022-10-31T09:25:52;13.88;;;6.10;;
13222;SDS011;6676;45.192;5.722;2022-10-31T09:29:02;10.58;;;5.85;;
13222;SDS011;6676;45.192;5.722;2022-10-31T09:31:56;11.55;;;5.62;;
13222;SDS011;6676;45.192;5.722;2022-10-31T09:34:51;16.47;;;6.30;;
13222;SDS011;6676;45.192;5.722;2022-10-31T09:37:43;11.15;;;6.00;;
13222;SDS011;6676;45.192;5.722;2022-10-31T09:40:35;13.45;;;5.95;;
13222;SDS011;6676;45.192;5.722;2022-10-31T09:43:29;12.28;;;5.65;;
13222;SDS011;6676;45.192;5.722;2022-10-31T09:46:24;13.13;;;5.67;;
13222;SDS011;6676;45.192;5.722;2022-10-31T09:49:37;10.72;;;5.00;;
13222;SDS011;6676;45.192;5.722;2022-10-31T09:52:35;9.15;;;4.80;;
13222;SDS011;6676;45.192;5.722;2022-10-31T09:55:36;10.93;;;5.08;;
13222;SDS011;6676;45.192;5.722;2022-10-31T09:58:27;9.88;;;4.72;;
13222;SDS011;6676;45.192;5.722;2022-10-31T10:01:32;12.13;;;4.62;;
13222;SDS011;6676;45.192;5.722;2022-10-31T10:04:30;9.13;;;4.03;;
13222;SDS011;6676;45.192;5.722;2022-10-31T10:07:29;8.75;;;4.45;;
13222;SDS011;6676;45.192;5.722;2022-10-31T10:10:47;10.58;;;5.25;;
13222;SDS011;6676;45.192;5.722;2022-10-31T10:14:01;11.40;;;4.72;;
13222;SDS011;6676;45.192;5.722;2022-10-31T10:17:10;13.58;;;5.12;;
13222;SDS011;6676;45.192;5.722;2022-10-31T10:23:22;12.98;;;5.55;;
13222;SDS011;6676;45.192;5.722;2022-10-31T10:26:17;10.60;;;5.78;;
13222;SDS011;6676;45.192;5.722;2022-10-31T10:29:21;10.32;;;5.30;;
13222;SDS011;6676;45.192;5.722;2022-10-31T10:32:13;12.65;;;5.15;;
13222;SDS011;6676;45.192;5.722;2022-10-31T10:35:10;10.48;;;5.58;;
13222;SDS011;6676;45.192;5.722;2022-10-31T10:38:04;13.83;;;4.40;;
13222;SDS011;6676;45.192;5.722;2022-10-31T10:40:59;7.47;;;3.92;;
13222;SDS011;6676;45.192;5.722;2022-10-31T10:43:53;9.43;;;3.47;;
13222;SDS011;6676;45.192;5.722;2022-10-31T10:46:48;8.93;;;3.90;;
13222;SDS011;6676;45.192;5.722;2022-10-31T10:49:56;8.65;;;4.00;;
13222;SDS011;6676;45.192;5.722;2022-10-31T10:52:50;9.43;;;3.40;;
13222;SDS011;6676;45.192;5.722;2022-10-31T10:55:45;12.60;;;3.95;;
13222;SDS011;6676;45.192;5.722;2022-10-31T10:58:40;6.17;;;3.45;;
13222;SDS011;6676;45.192;5.722;2022-10-31T11:01:33;8.13;;;3.75;;
13222;SDS011;6676;45.192;5.722;2022-10-31T11:04:26;7.35;;;3.65;;
13222;SDS011;6676;45.192;5.722;2022-10-31T11:07:19;6.92;;;3.60;;
13222;SDS011;6676;45.192;5.722;2022-10-31T11:10:12;10.05;;;3.40;;
13222;SDS011;6676;45.192;5.722;2022-10-31T11:13:06;9.83;;;3.80;;
13222;SDS011;6676;45.192;5.722;2022-10-31T11:16:09;6.78;;;3.45;;
13222;SDS011;6676;45.192;5.722;2022-10-31T11:19:07;7.83;;;3.60;;
13222;SDS011;6676;45.192;5.722;2022-10-31T11:22:06;7.05;;;3.62;;
13222;SDS011;6676;45.192;5.722;2022-10-31T11:24:58;5.55;;;2.95;;
13222;SDS011;6676;45.192;5.722;2022-10-31T11:27:59;10.25;;;3.50;;
13222;SDS011;6676;45.192;5.722;2022-10-31T11:30:52;8.50;;;3.80;;
13222;SDS011;6676;45.192;5.722;2022-10-31T11:33:46;8.63;;;3.77;;
13222;SDS011;6676;45.192;5.722;2022-10-31T11:36:42;7.62;;;3.50;;
13222;SDS011;6676;45.192;5.722;2022-10-31T11:39:33;8.15;;;3.35;;
13222;SDS011;6676;45.192;5.722;2022-10-31T11:42:28;8.15;;;3.85;;
13222;SDS011;6676;45.192;5.722;2022-10-31T11:45:28;7.28;;;3.37;;
13222;SDS011;6676;45.192;5.722;2022-10-31T11:48:22;7.37;;;3.27;;
13222;SDS011;6676;45.192;5.722;2022-10-31T11:51:20;8.53;;;3.35;;
13222;SDS011;6676;45.192;5.722;2022-10-31T11:54:18;7.70;;;3.55;;
13222;SDS011;6676;45.192;5.722;2022-10-31T11:57:22;11.22;;;3.42;;
13222;SDS011;6676;45.192;5.722;2022-10-31T12:00:21;10.75;;;4.22;;
13222;SDS011;6676;45.192;5.722;2022-10-31T12:03:17;8.58;;;3.62;;
13222;SDS011;6676;45.192;5.722;2022-10-31T12:06:16;7.55;;;3.35;;
13222;SDS011;6676;45.192;5.722;2022-10-31T12:09:16;16.37;;;5.35;;
13222;SDS011;6676;45.192;5.722;2022-10-31T12:15:30;9.03;;;3.65;;
13222;SDS011;6676;45.192;5.722;2022-10-31T12:18:29;8.65;;;3.70;;
13222;SDS011;6676;45.192;5.722;2022-10-31T12:21:52;9.40;;;3.65;;
13222;SDS011;6676;45.192;5.722;2022-10-31T12:24:54;8.83;;;3.67;;
13222;SDS011;6676;45.192;5.722;2022-10-31T12:28:02;6.95;;;3.62;;
13222;SDS011;6676;45.192;5.722;2022-10-31T12:31:21;6.45;;;3.60;;
13222;SDS011;6676;45.192;5.722;2022-10-31T12:34:40;10.10;;;3.87;;
13222;SDS011;6676;45.192;5.722;2022-10-31T12:37:40;6.92;;;3.33;;
13222;SDS011;6676;45.192;5.722;2022-10-31T12:40:41;10.30;;;3.55;;
13222;SDS011;6676;45.192;5.722;2022-10-31T12:43:39;9.85;;;4.00;;
13222;SDS011;6676;45.192;5.722;2022-10-31T12:46:35;10.45;;;4.33;;
13222;SDS011;6676;45.192;5.722;2022-10-31T12:49:44;8.53;;;3.65;;
13222;SDS011;6676;45.192;5.722;2022-10-31T12:52:42;11.48;;;4.53;;
13222;SDS011;6676;45.192;5.722;2022-10-31T12:55:40;10.13;;;4.03;;
13222;SDS011;6676;45.192;5.722;2022-10-31T12:58:34;8.05;;;4.03;;
13222;SDS011;6676;45.192;5.722;2022-10-31T13:01:28;11.68;;;4.70;;
13222;SDS011;6676;45.192;5.722;2022-10-31T13:04:23;8.00;;;3.67;;
13222;SDS011;6676;45.192;5.722;2022-10-31T13:07:17;13.13;;;4.45;;
13222;SDS011;6676;45.192;5.722;2022-10-31T13:10:14;12.98;;;4.53;;
13222;SDS011;6676;45.192;5.722;2022-10-31T13:13:11;9.55;;;3.60;;
13222;SDS011;6676;45.192;5.722;2022-10-31T13:16:04;7.80;;;3.20;;
13222;SDS011;6676;45.192;5.722;2022-10-31T13:18:59;6.28;;;3.05;;
13222;SDS011;6676;45.192;5.722;2022-10-31T13:21:57;8.15;;;3.35;;
13222;SDS011;6676;45.192;5.722;2022-10-31T13:24:52;10.05;;;3.45;;
13222;SDS011;6676;45.192;5.722;2022-10-31T13:27:46;11.03;;;3.47;;
13222;SDS011;6676;45.192;5.722;2022-10-31T13:30:40;8.40;;;3.70;;
13222;SDS011;6676;45.192;5.722;2022-10-31T13:33:34;9.55;;;3.30;;
13222;SDS011;6676;45.192;5.722;2022-10-31T13:36:29;6.58;;;3.17;;
13222;SDS011;6676;45.192;5.722;2022-10-31T13:39:25;7.25;;;3.30;;
13222;SDS011;6676;45.192;5.722;2022-10-31T13:42:20;5.30;;;3.20;;
13222;SDS011;6676;45.192;5.722;2022-10-31T13:45:15;10.23;;;3.65;;
13222;SDS011;6676;45.192;5.722;2022-10-31T13:48:18;7.58;;;3.92;;
13222;SDS011;6676;45.192;5.722;2022-10-31T13:51:26;10.28;;;3.47;;
13222;SDS011;6676;45.192;5.722;2022-10-31T13:54:21;8.68;;;3.77;;
13222;SDS011;6676;45.192;5.722;2022-10-31T13:57:15;8.50;;;3.20;;
13222;SDS011;6676;45.192;5.722;2022-10-31T14:00:22;9.15;;;3.27;;
13222;SDS011;6676;45.192;5.722;2022-10-31T14:03:17;9.08;;;3.67;;
13222;SDS011;6676;45.192;5.722;2022-10-31T14:09:00;10.93;;;3.30;;
13222;SDS011;6676;45.192;5.722;2022-10-31T14:11:53;9.98;;;3.27;;
13222;SDS011;6676;45.192;5.722;2022-10-31T14:14:46;7.75;;;3.80;;
13222;SDS011;6676;45.192;5.722;2022-10-31T14:17:45;8.40;;;2.90;;
13222;SDS011;6676;45.192;5.722;2022-10-31T14:20:39;6.75;;;3.02;;
13222;SDS011;6676;45.192;5.722;2022-10-31T14:23:34;9.15;;;3.10;;
13222;SDS011;6676;45.192;5.722;2022-10-31T14:26:35;6.87;;;3.00;;
13222;SDS011;6676;45.192;5.722;2022-10-31T14:29:27;10.25;;;3.20;;
13222;SDS011;6676;45.192;5.722;2022-10-31T14:32:21;9.15;;;3.42;;
13222;SDS011;6676;45.192;5.722;2022-10-31T14:35:17;10.88;;;3.70;;
13222;SDS011;6676;45.192;5.722;2022-10-31T14:38:27;8.75;;;3.20;;
13222;SDS011;6676;45.192;5.722;2022-10-31T14:41:47;10.25;;;3.30;;
13222;SDS011;6676;45.192;5.722;2022-10-31T14:48:10;12.20;;;4.25;;
13222;SDS011;6676;45.192;5.722;2022-10-31T14:51:08;7.50;;;3.00;;
13222;SDS011;6676;45.192;5.722;2022-10-31T14:54:02;9.87;;;3.10;;
13222;SDS011;6676;45.192;5.722;2022-10-31T14:56:58;10.80;;;3.00;;
13222;SDS011;6676;45.192;5.722;2022-10-31T14:59:53;9.25;;;2.77;;
13222;SDS011;6676;45.192;5.722;2022-10-31T15:02:50;6.10;;;3.20;;
13222;SDS011;6676;45.192;5.722;2022-10-31T15:06:10;9.10;;;3.40;;
13222;SDS011;6676;45.192;5.722;2022-10-31T15:09:00;8.88;;;3.42;;
13222;SDS011;6676;45.192;5.722;2022-10-31T15:11:52;10.80;;;3.25;;
13222;SDS011;6676;45.192;5.722;2022-10-31T15:14:47;10.20;;;3.00;;
13222;SDS011;6676;45.192;5.722;2022-10-31T15:17:42;7.92;;;3.00;;
13222;SDS011;6676;45.192;5.722;2022-10-31T15:20:42;9.70;;;3.33;;
13222;SDS011;6676;45.192;5.722;2022-10-31T15:23:33;6.40;;;3.10;;
13222;SDS011;6676;45.192;5.722;2022-10-31T15:26:26;7.72;;;3.02;;
13222;SDS011;6676;45.192;5.722;2022-10-31T15:29:22;8.63;;;3.47;;
13222;SDS011;6676;45.192;5.722;2022-10-31T15:32:18;8.63;;;3.52;;
13222;SDS011;6676;45.192;5.722;2022-10-31T15:35:14;10.20;;;3.25;;
13222;SDS011;6676;45.192;5.722;2022-10-31T15:38:12;6.97;;;3.47;;
13222;SDS011;6676;45.192;5.722;2022-10-31T15:41:06;6.78;;;3.33;;
13222;SDS011;6676;45.192;5.722;2022-10-31T15:44:11;12.10;;;5.00;;
13222;SDS011;6676;45.192;5.722;2022-10-31T15:47:06;10.68;;;3.67;;
13222;SDS011;6676;45.192;5.722;2022-10-31T15:50:05;10.35;;;3.83;;
13222;SDS011;6676;45.192;5.722;2022-10-31T15:52:56;6.80;;;3.10;;
13222;SDS011;6676;45.192;5.722;2022-10-31T15:55:49;8.10;;;3.40;;
13222;SDS011;6676;45.192;5.722;2022-10-31T15:58:43;8.83;;;3.70;;
13222;SDS011;6676;45.192;5.722;2022-10-31T16:01:36;8.05;;;3.02;;
13222;SDS011;6676;45.192;5.722;2022-10-31T16:04:28;7.97;;;3.22;;
13222;SDS011;6676;45.192;5.722;2022-10-31T16:07:19;12.70;;;3.80;;
13222;SDS011;6676;45.192;5.722;2022-10-31T16:10:22;6.87;;;3.33;;
13222;SDS011;6676;45.192;5.722;2022-10-31T16:13:15;6.35;;;3.30;;
13222;SDS011;6676;45.192;5.722;2022-10-31T16:16:10;7.85;;;3.00;;
13222;SDS011;6676;45.192;5.722;2022-10-31T16:19:05;8.43;;;2.80;;
13222;SDS011;6676;45.192;5.722;2022-10-31T16:24:57;10.03;;;2.77;;
13222;SDS011;6676;45.192;5.722;2022-10-31T16:27:52;8.95;;;3.55;;
13222;SDS011;6676;45.192;5.722;2022-10-31T16:30:45;8.93;;;3.47;;
13222;SDS011;6676;45.192;5.722;2022-10-31T16:33:39;8.23;;;3.20;;
13222;SDS011;6676;45.192;5.722;2022-10-31T16:36:32;7.80;;;3.40;;
13222;SDS011;6676;45.192;5.722;2022-10-31T16:39:26;7.28;;;3.72;;
13222;SDS011;6676;45.192;5.722;2022-10-31T16:42:18;11.18;;;4.78;;
13222;SDS011;6676;45.192;5.722;2022-10-31T16:45:13;10.95;;;4.20;;
13222;SDS011;6676;45.192;5.722;2022-10-31T16:48:09;8.23;;;3.85;;
13222;SDS011;6676;45.192;5.722;2022-10-31T16:51:03;7.45;;;3.22;;
13222;SDS011;6676;45.192;5.722;2022-10-31T16:53:56;11.45;;;3.77;;
13222;SDS011;6676;45.192;5.722;2022-10-31T16:56:47;9.58;;;3.45;;
13222;SDS011;6676;45.192;5.722;2022-10-31T16:59:38;8.50;;;3.37;;
13222;SDS011;6676;45.192;5.722;2022-10-31T17:02:30;9.58;;;3.70;;
13222;SDS011;6676;45.192;5.722;2022-10-31T17:05:22;7.78;;;3.65;;
13222;SDS011;6676;45.192;5.722;2022-10-31T17:08:16;8.53;;;3.47;;
13222;SDS011;6676;45.192;5.722;2022-10-31T17:11:08;10.48;;;3.83;;
13222;SDS011;6676;45.192;5.722;2022-10-31T17:14:03;11.57;;;3.72;;
13222;SDS011;6676;45.192;5.722;2022-10-31T17:16:55;11.70;;;4.33;;
13222;SDS011;6676;45.192;5.722;2022-10-31T17:19:46;13.13;;;4.20;;
13222;SDS011;6676;45.192;5.722;2022-10-31T17:22:38;11.18;;;5.10;;
13222;SDS011;6676;45.192;5.722;2022-10-31T17:25:29;10.32;;;4.67;;
13222;SDS011;6676;45.192;5.722;2022-10-31T17:28:21;8.88;;;4.60;;
13222;SDS011;6676;45.192;5.722;2022-10-31T17:31:18;7.08;;;4.55;;
13222;SDS011;6676;45.192;5.722;2022-10-31T17:34:11;8.68;;;4.62;;
13222;SDS011;6676;45.192;5.722;2022-10-31T17:37:03;10.53;;;4.37;;
13222;SDS011;6676;45.192;5.722;2022-10-31T17:39:55;9.65;;;4.70;;
13222;SDS011;6676;45.192;5.722;2022-10-31T17:42:50;13.85;;;4.05;;
13222;SDS011;6676;45.192;5.722;2022-10-31T17:45:42;10.15;;;4.10;;
13222;SDS011;6676;45.192;5.722;2022-10-31T17:48:22;6.78;;;4.05;;
13222;SDS011;6676;45.192;5.722;2022-10-31T17:51:14;12.50;;;4.03;;
13222;SDS011;6676;45.192;5.722;2022-10-31T17:54:05;14.20;;;4.40;;
13222;SDS011;6676;45.192;5.722;2022-10-31T17:56:57;9.75;;;4.00;;
13222;SDS011;6676;45.192;5.722;2022-10-31T17:59:49;8.33;;;3.80;;
13222;SDS011;6676;45.192;5.722;2022-10-31T18:02:40;7.45;;;3.83;;
13222;SDS011;6676;45.192;5.722;2022-10-31T18:08:13;8.40;;;3.87;;